createdAt,value
2019-03-06T00:00:59.064Z,7.29
2019-03-06T00:01:59.067Z,7.31
2019-03-06T00:02:59.038Z,7.24
2019-03-06T00:03:59.009Z,7.24
2019-03-06T00:04:59.000Z,7.29
2019-03-06T00:05:58.984Z,7.29
2019-03-06T00:06:58.975Z,7.15
2019-03-06T00:07:59.006Z,7.23
2019-03-06T00:08:58.953Z,7.28
2019-03-06T00:09:58.974Z,7.28
2019-03-06T00:10:58.931Z,7.24
2019-03-06T00:11:58.922Z,7.18
2019-03-06T00:12:58.902Z,7.35
2019-03-06T00:13:58.918Z,7.31
2019-03-06T00:14:58.881Z,7.39
2019-03-06T00:15:58.874Z,7.33
2019-03-06T00:16:58.862Z,7.39
2019-03-06T00:17:58.858Z,7.47
2019-03-06T00:18:58.869Z,7.47
2019-03-06T00:19:58.936Z,7.47
2019-03-06T00:20:58.844Z,7.32
2019-03-06T00:21:58.823Z,7.43
2019-03-06T00:22:58.862Z,7.47
2019-03-06T00:23:58.787Z,7.42
2019-03-06T00:24:58.791Z,7.45
2019-03-06T00:25:58.760Z,7.47
2019-03-06T00:26:58.747Z,7.32
2019-03-06T00:27:58.737Z,7.33
2019-03-06T00:28:58.721Z,7.36
2019-03-06T00:29:58.737Z,7.33
2019-03-06T00:30:58.700Z,7.35
2019-03-06T00:31:58.696Z,7.32
2019-03-06T00:32:59.336Z,7.42
2019-03-06T00:33:58.668Z,7.32
2019-03-06T00:34:58.656Z,7.29
2019-03-06T00:35:58.645Z,7.42
2019-03-06T00:36:58.671Z,7.35
2019-03-06T00:37:58.620Z,7.33
2019-03-06T00:38:58.680Z,7.32
2019-03-06T00:39:58.621Z,7.33
2019-03-06T00:40:58.657Z,7.38
2019-03-06T00:42:05.698Z,7.32
2019-03-06T00:42:58.577Z,7.32
2019-03-06T00:43:58.586Z,7.32
2019-03-06T00:44:58.549Z,7.33
2019-03-06T00:45:58.578Z,7.36
2019-03-06T00:46:58.532Z,7.36
2019-03-06T00:47:58.522Z,7.35
2019-03-06T00:48:58.498Z,7.33
2019-03-06T00:49:58.492Z,7.33
2019-03-06T00:50:58.486Z,7.33
2019-03-06T00:51:58.510Z,7.33
2019-03-06T00:52:58.473Z,7.32
2019-03-06T00:53:58.451Z,7.40
2019-03-06T00:54:58.534Z,7.38
2019-03-06T00:55:58.422Z,7.31
2019-03-06T00:56:58.436Z,7.35
2019-03-06T00:57:58.444Z,7.31
2019-03-06T00:58:58.387Z,7.31
2019-03-06T00:59:58.383Z,7.23
2019-03-06T01:00:58.382Z,7.23
2019-03-06T01:01:58.399Z,7.21
2019-03-06T01:02:58.344Z,7.24
2019-03-06T01:03:58.337Z,7.24
2019-03-06T01:04:58.332Z,7.20
2019-03-06T01:05:58.312Z,7.23
2019-03-06T01:06:58.352Z,7.32
2019-03-06T01:07:58.294Z,7.23
2019-03-06T01:08:58.283Z,7.24
2019-03-06T01:09:58.271Z,7.32
2019-03-06T01:10:58.255Z,7.31
2019-03-06T01:11:58.268Z,7.29
2019-03-06T01:12:58.300Z,7.23
2019-03-06T01:13:58.222Z,7.28
2019-03-06T01:14:58.284Z,7.31
2019-03-06T01:15:58.215Z,7.20
2019-03-06T01:16:58.193Z,7.24
2019-03-06T01:17:58.188Z,7.18
2019-03-06T01:18:58.265Z,7.24
2019-03-06T01:19:58.155Z,7.29
2019-03-06T01:20:58.199Z,7.28
2019-03-06T01:21:58.155Z,7.24
2019-03-06T01:22:58.128Z,7.31
2019-03-06T01:23:58.116Z,7.29
2019-03-06T01:24:58.097Z,7.21
2019-03-06T01:25:58.085Z,7.28
2019-03-06T01:26:58.101Z,7.28
2019-03-06T01:27:58.063Z,7.25
2019-03-06T01:28:58.101Z,7.15
2019-03-06T01:29:58.047Z,7.15
2019-03-06T01:30:58.072Z,7.29
2019-03-06T01:31:58.021Z,7.28
2019-03-06T01:32:58.280Z,7.29
2019-03-06T01:33:57.996Z,7.23
2019-03-06T01:34:58.128Z,7.29
2019-03-06T01:35:57.980Z,7.28
2019-03-06T01:36:57.961Z,7.25
2019-03-06T01:37:57.981Z,7.33
2019-03-06T01:38:57.971Z,7.25
2019-03-06T01:39:57.947Z,7.28
2019-03-06T01:40:57.919Z,7.24
2019-03-06T01:41:57.913Z,7.21
2019-03-06T01:42:57.930Z,7.23
2019-03-06T01:43:57.920Z,7.21
2019-03-06T01:44:57.916Z,7.21
2019-03-06T01:45:57.879Z,7.29
2019-03-06T01:46:57.858Z,7.25
2019-03-06T01:47:57.854Z,7.25
2019-03-06T01:48:57.832Z,7.23
2019-03-06T01:49:57.868Z,7.25
2019-03-06T01:50:57.916Z,7.28
2019-03-06T01:51:57.826Z,7.24
2019-03-06T01:52:57.818Z,7.28
2019-03-06T01:53:57.849Z,7.25
2019-03-06T01:54:57.813Z,7.23
2019-03-06T01:55:57.847Z,7.18
2019-03-06T01:56:57.774Z,7.24
2019-03-06T01:57:57.749Z,7.21
2019-03-06T01:58:57.870Z,7.18
2019-03-06T01:59:57.722Z,7.15
2019-03-06T02:00:57.717Z,7.23
2019-03-06T02:01:57.803Z,7.28
2019-03-06T02:02:57.692Z,7.23
2019-03-06T02:03:57.706Z,7.17
2019-03-06T02:04:57.703Z,7.21
2019-03-06T02:05:57.661Z,7.13
2019-03-06T02:06:57.686Z,7.24
2019-03-06T02:07:57.662Z,7.21
2019-03-06T02:08:57.678Z,7.23
2019-03-06T02:09:57.620Z,7.20
2019-03-06T02:10:57.604Z,7.20
2019-03-06T02:11:57.646Z,7.18
2019-03-06T02:12:57.602Z,7.20
2019-03-06T02:13:57.577Z,7.24
2019-03-06T02:14:57.600Z,7.20
2019-03-06T02:15:57.564Z,7.28
2019-03-06T02:16:57.552Z,7.25
2019-03-06T02:17:57.545Z,7.25
2019-03-06T02:18:57.528Z,7.23
2019-03-06T02:19:57.567Z,7.23
2019-03-06T02:20:57.579Z,7.25
2019-03-06T02:21:57.503Z,7.32
2019-03-06T02:22:57.590Z,7.23
2019-03-06T02:23:57.469Z,7.31
2019-03-06T02:24:57.485Z,7.24
2019-03-06T02:25:57.451Z,7.31
2019-03-06T02:26:57.449Z,7.28
2019-03-06T02:27:57.448Z,7.24
2019-03-06T02:28:57.440Z,7.24
2019-03-06T02:29:57.396Z,7.32
2019-03-06T02:30:57.410Z,7.31
2019-03-06T02:31:57.369Z,7.23
2019-03-06T02:32:57.447Z,7.28
2019-03-06T02:33:57.392Z,7.24
2019-03-06T02:34:57.387Z,7.31
2019-03-06T02:35:57.337Z,7.35
2019-03-06T02:36:57.317Z,7.32
2019-03-06T02:37:57.340Z,7.24
2019-03-06T02:38:57.285Z,7.33
2019-03-06T02:39:57.307Z,7.31
2019-03-06T02:40:57.316Z,7.33
2019-03-06T02:41:57.275Z,7.31
2019-03-06T02:42:57.407Z,7.35
2019-03-06T02:43:57.234Z,7.32
2019-03-06T02:44:57.325Z,7.32
2019-03-06T02:45:57.251Z,7.35
2019-03-06T02:46:57.203Z,7.36
2019-03-06T02:47:57.285Z,7.32
2019-03-06T02:48:57.175Z,7.33
2019-03-06T02:49:57.183Z,7.38
2019-03-06T02:50:57.159Z,7.35
2019-03-06T02:51:57.197Z,7.33
2019-03-06T02:52:57.133Z,7.38
2019-03-06T02:53:57.132Z,7.32
2019-03-06T02:54:57.144Z,7.33
2019-03-06T02:55:57.121Z,7.28
2019-03-06T02:56:57.108Z,7.36
2019-03-06T02:57:57.326Z,7.36
2019-03-06T02:58:57.069Z,7.40
2019-03-06T02:59:57.062Z,7.39
2019-03-06T03:00:57.215Z,7.47
2019-03-06T03:01:57.058Z,7.36
2019-03-06T03:02:57.017Z,7.45
2019-03-06T03:03:57.077Z,7.42
2019-03-06T03:04:57.005Z,7.43
2019-03-06T03:05:56.998Z,7.33
2019-03-06T03:06:57.000Z,7.32
2019-03-06T03:07:57.070Z,7.33
2019-03-06T03:08:57.004Z,7.35
2019-03-06T03:09:56.945Z,7.36
2019-03-06T03:10:56.935Z,7.33
2019-03-06T03:11:56.971Z,7.38
2019-03-06T03:12:56.921Z,7.35
2019-03-06T03:13:56.937Z,7.35
2019-03-06T03:14:56.890Z,7.38
2019-03-06T03:15:56.949Z,7.45
2019-03-06T03:16:56.906Z,7.45
2019-03-06T03:17:56.858Z,7.47
2019-03-06T03:18:56.843Z,7.35
2019-03-06T03:19:56.831Z,7.39
2019-03-06T03:20:56.987Z,7.45
2019-03-06T03:21:56.842Z,7.42
2019-03-06T03:22:56.792Z,7.38
2019-03-06T03:23:56.798Z,7.42
2019-03-06T03:24:56.951Z,7.48
2019-03-06T03:25:56.807Z,7.42
2019-03-06T03:26:56.807Z,7.48
2019-03-06T03:27:56.746Z,7.43
2019-03-06T03:28:56.758Z,7.56
2019-03-06T03:29:56.776Z,7.48
2019-03-06T03:30:56.770Z,7.48
2019-03-06T03:31:56.813Z,7.47
2019-03-06T03:32:56.723Z,7.51
2019-03-06T03:33:56.705Z,7.50
2019-03-06T03:34:56.700Z,7.47
2019-03-06T03:35:56.671Z,7.58
2019-03-06T03:36:56.696Z,7.56
2019-03-06T03:37:57.397Z,7.56
2019-03-06T03:38:56.642Z,7.56
2019-03-06T03:39:56.655Z,7.51
2019-03-06T03:40:56.828Z,7.57
2019-03-06T03:41:56.604Z,7.54
2019-03-06T03:42:56.690Z,7.54
2019-03-06T03:43:56.800Z,7.57
2019-03-06T03:44:56.601Z,7.51
2019-03-06T03:45:56.580Z,7.56
2019-03-06T03:46:56.528Z,7.54
2019-03-06T03:47:56.562Z,7.56
2019-03-06T03:48:56.539Z,7.56
2019-03-06T03:49:56.566Z,7.53
2019-03-06T03:50:56.505Z,7.61
2019-03-06T03:51:56.497Z,7.53
2019-03-06T03:52:56.500Z,7.54
2019-03-06T03:53:56.574Z,7.57
2019-03-06T03:54:56.485Z,7.60
2019-03-06T03:55:56.430Z,7.54
2019-03-06T03:56:56.425Z,7.53
2019-03-06T03:57:56.485Z,7.60
2019-03-06T03:58:56.432Z,7.61
2019-03-06T03:59:57.407Z,7.61
2019-03-06T04:00:56.532Z,7.69
2019-03-06T04:01:56.397Z,7.67
2019-03-06T04:02:56.404Z,7.67
2019-03-06T04:03:56.348Z,7.73
2019-03-06T04:04:56.360Z,7.63
2019-03-06T04:05:56.318Z,7.61
2019-03-06T04:06:56.434Z,7.66
2019-03-06T04:07:56.346Z,7.70
2019-03-06T04:08:56.293Z,7.63
2019-03-06T04:09:56.307Z,7.67
2019-03-06T04:10:56.372Z,7.60
2019-03-06T04:11:56.259Z,7.72
2019-03-06T04:12:56.269Z,7.73
2019-03-06T04:13:56.226Z,7.73
2019-03-06T04:14:56.278Z,7.75
2019-03-06T04:15:56.208Z,7.75
2019-03-06T04:16:56.222Z,7.76
2019-03-06T04:17:56.197Z,7.77
2019-03-06T04:18:56.203Z,7.87
2019-03-06T04:19:56.198Z,7.80
2019-03-06T04:20:56.295Z,7.82
2019-03-06T04:21:56.142Z,7.88
2019-03-06T04:22:56.180Z,7.87
2019-03-06T04:23:56.905Z,7.80
2019-03-06T04:24:56.143Z,7.87
2019-03-06T04:25:56.116Z,7.93
2019-03-06T04:26:56.130Z,7.90
2019-03-06T04:27:56.078Z,7.93
2019-03-06T04:28:56.171Z,7.93
2019-03-06T04:29:56.064Z,7.93
2019-03-06T04:30:56.076Z,7.95
2019-03-06T04:31:56.080Z,7.95
2019-03-06T04:32:56.026Z,7.94
2019-03-06T04:33:56.041Z,7.93
2019-03-06T04:34:56.050Z,7.93
2019-03-06T04:35:56.025Z,8.05
2019-03-06T04:36:55.979Z,7.91
2019-03-06T04:37:55.969Z,7.90
2019-03-06T04:38:55.973Z,7.91
2019-03-06T04:39:56.906Z,7.91
2019-03-06T04:40:56.000Z,7.94
2019-03-06T04:41:55.934Z,7.80
2019-03-06T04:42:55.967Z,7.82
2019-03-06T04:43:55.936Z,7.80
2019-03-06T04:44:55.916Z,7.77
2019-03-06T04:45:55.922Z,7.83
2019-03-06T04:46:55.891Z,7.85
2019-03-06T04:47:55.855Z,7.79
2019-03-06T04:48:55.871Z,7.79
2019-03-06T04:49:55.847Z,7.83
2019-03-06T04:50:55.947Z,7.83
2019-03-06T04:51:55.801Z,7.77
2019-03-06T04:52:55.795Z,7.83
2019-03-06T04:53:55.872Z,7.88
2019-03-06T04:54:55.782Z,7.76
2019-03-06T04:55:55.817Z,7.82
2019-03-06T04:56:55.828Z,7.77
2019-03-06T04:57:55.740Z,7.80
2019-03-06T04:58:55.732Z,7.77
2019-03-06T04:59:55.739Z,7.76
2019-03-06T05:00:55.793Z,7.88
2019-03-06T05:01:55.701Z,7.80
2019-03-06T05:02:55.741Z,7.82
2019-03-06T05:03:55.795Z,7.79
2019-03-06T05:04:55.703Z,7.90
2019-03-06T05:05:55.661Z,7.77
2019-03-06T05:06:55.647Z,7.83
2019-03-06T05:07:55.643Z,7.82
2019-03-06T05:08:55.657Z,7.94
2019-03-06T05:09:55.629Z,7.97
2019-03-06T05:10:55.587Z,7.94
2019-03-06T05:11:55.590Z,7.95
2019-03-06T05:12:55.576Z,7.95
2019-03-06T05:13:55.574Z,7.98
2019-03-06T05:14:55.662Z,8.03
2019-03-06T05:15:55.547Z,8.01
2019-03-06T05:16:55.578Z,7.97
2019-03-06T05:17:55.525Z,7.94
2019-03-06T05:18:55.505Z,7.97
2019-03-06T05:19:55.560Z,7.97
2019-03-06T05:20:55.531Z,7.98
2019-03-06T05:21:55.467Z,7.98
2019-03-06T05:22:55.472Z,8.06
2019-03-06T05:23:55.452Z,8.06
2019-03-06T05:24:55.472Z,8.03
2019-03-06T05:25:55.496Z,8.03
2019-03-06T05:26:55.422Z,8.03
2019-03-06T05:27:55.407Z,8.08
2019-03-06T05:28:55.411Z,8.06
2019-03-06T05:29:55.387Z,8.06
2019-03-06T05:30:55.386Z,8.10
2019-03-06T05:31:55.437Z,8.15
2019-03-06T05:32:55.554Z,8.09
2019-03-06T05:33:55.364Z,8.10
2019-03-06T05:34:55.341Z,8.10
2019-03-06T05:35:55.471Z,8.09
2019-03-06T05:36:55.389Z,8.09
2019-03-06T05:37:55.369Z,8.12
2019-03-06T05:38:55.351Z,8.12
2019-03-06T05:39:55.264Z,8.10
2019-03-06T05:40:55.296Z,8.08
2019-03-06T05:41:55.276Z,8.10
2019-03-06T05:42:55.233Z,8.08
2019-03-06T05:43:55.308Z,8.05
2019-03-06T05:44:55.232Z,8.13
2019-03-06T05:45:55.210Z,8.10
2019-03-06T05:46:55.196Z,8.09
2019-03-06T05:47:55.220Z,8.05
2019-03-06T05:48:55.240Z,8.05
2019-03-06T05:49:55.159Z,8.06
2019-03-06T05:50:55.191Z,8.09
2019-03-06T05:51:55.138Z,8.06
2019-03-06T05:52:55.160Z,8.00
2019-03-06T05:53:55.211Z,8.05
2019-03-06T05:54:55.107Z,8.03
2019-03-06T05:55:55.103Z,8.08
2019-03-06T05:56:55.280Z,8.06
2019-03-06T05:57:55.177Z,8.05
2019-03-06T05:58:55.099Z,8.06
2019-03-06T05:59:55.074Z,8.08
2019-03-06T06:00:55.054Z,8.09
2019-03-06T06:01:55.033Z,8.08
2019-03-06T06:02:55.049Z,8.10
2019-03-06T06:03:55.095Z,8.09
2019-03-06T06:04:55.010Z,8.08
2019-03-06T06:05:55.033Z,8.12
2019-03-06T06:06:55.000Z,8.18
2019-03-06T06:07:54.999Z,8.13
2019-03-06T06:08:54.983Z,8.19
2019-03-06T06:09:54.986Z,8.20
2019-03-06T06:10:54.941Z,8.20
2019-03-06T06:11:54.925Z,8.20
2019-03-06T06:12:55.019Z,8.27
2019-03-06T06:13:54.960Z,8.26
2019-03-06T06:14:54.947Z,8.28
2019-03-06T06:15:54.904Z,8.27
2019-03-06T06:16:55.623Z,8.31
2019-03-06T06:17:54.847Z,8.34
2019-03-06T06:18:54.845Z,8.38
2019-03-06T06:19:54.856Z,8.38
2019-03-06T06:20:54.909Z,8.42
2019-03-06T06:21:54.834Z,8.33
2019-03-06T06:22:54.793Z,8.38
2019-03-06T06:23:54.784Z,8.41
2019-03-06T06:24:54.764Z,8.42
2019-03-06T06:25:54.755Z,8.41
2019-03-06T06:26:54.811Z,8.38
2019-03-06T06:27:54.743Z,8.41
2019-03-06T06:28:54.928Z,8.41
2019-03-06T06:29:54.740Z,8.36
2019-03-06T06:30:54.744Z,8.31
2019-03-06T06:31:54.795Z,8.37
2019-03-06T06:32:54.693Z,8.46
2019-03-06T06:33:54.688Z,8.37
2019-03-06T06:34:54.686Z,8.37
2019-03-06T06:35:54.758Z,8.46
2019-03-06T06:36:54.643Z,8.55
2019-03-06T06:37:54.634Z,8.61
2019-03-06T06:38:54.633Z,8.61
2019-03-06T06:39:54.610Z,8.70
2019-03-06T06:40:54.644Z,8.64
2019-03-06T06:42:01.636Z,8.61
2019-03-06T06:42:54.564Z,8.69
2019-03-06T06:43:54.609Z,8.63
2019-03-06T06:44:54.560Z,8.60
2019-03-06T06:45:54.610Z,8.58
2019-03-06T06:46:54.541Z,8.61
2019-03-06T06:47:54.575Z,8.63
2019-03-06T06:48:54.509Z,8.60
2019-03-06T06:49:54.538Z,8.63
2019-03-06T06:51:01.271Z,8.56
2019-03-06T06:51:55.510Z,8.60
2019-03-06T06:52:54.475Z,8.53
2019-03-06T06:53:54.452Z,8.55
2019-03-06T06:54:54.445Z,8.58
2019-03-06T06:55:54.546Z,8.52
2019-03-06T06:56:54.485Z,8.58
2019-03-06T06:57:54.412Z,8.64
2019-03-06T06:58:54.513Z,8.56
2019-03-06T06:59:54.392Z,8.51
2019-03-06T07:00:54.368Z,8.63
2019-03-06T07:01:54.356Z,8.61
2019-03-06T07:02:54.373Z,8.61
2019-03-06T07:03:54.361Z,8.55
2019-03-06T07:04:54.402Z,8.63
2019-03-06T07:05:54.329Z,8.61
2019-03-06T07:06:54.341Z,8.63
2019-03-06T07:07:54.326Z,8.69
2019-03-06T07:08:54.279Z,8.66
2019-03-06T07:09:54.286Z,8.60
2019-03-06T07:10:54.271Z,8.56
2019-03-06T07:11:54.323Z,8.63
2019-03-06T07:12:54.285Z,8.60
2019-03-06T07:13:54.231Z,8.56
2019-03-06T07:14:54.244Z,8.70
2019-03-06T07:15:54.228Z,8.73
2019-03-06T07:16:54.203Z,8.78
2019-03-06T07:17:54.222Z,8.79
2019-03-06T07:18:54.202Z,8.81
2019-03-06T07:19:54.174Z,8.81
2019-03-06T07:20:54.169Z,8.73
2019-03-06T07:21:54.192Z,8.76
2019-03-06T07:22:54.218Z,8.81
2019-03-06T07:23:54.135Z,8.69
2019-03-06T07:24:54.127Z,8.71
2019-03-06T07:25:54.120Z,8.66
2019-03-06T07:26:54.082Z,8.64
2019-03-06T07:27:54.119Z,8.64
2019-03-06T07:28:54.143Z,8.67
2019-03-06T07:29:54.063Z,8.64
2019-03-06T07:30:54.042Z,8.73
2019-03-06T07:31:54.040Z,8.67
2019-03-06T07:32:54.019Z,8.71
2019-03-06T07:33:54.018Z,8.71
2019-03-06T07:34:54.047Z,8.69
2019-03-06T07:35:54.966Z,8.69
2019-03-06T07:36:53.973Z,8.73
2019-03-06T07:37:53.967Z,8.70
2019-03-06T07:38:54.149Z,8.71
2019-03-06T07:39:53.974Z,8.82
2019-03-06T07:40:53.926Z,8.79
2019-03-06T07:41:53.951Z,8.82
2019-03-06T07:42:53.921Z,8.82
2019-03-06T07:43:53.921Z,8.82
2019-03-06T07:44:53.974Z,8.87
2019-03-06T07:45:53.883Z,8.84
2019-03-06T07:46:53.879Z,8.89
2019-03-06T07:47:53.873Z,8.85
2019-03-06T07:48:53.868Z,8.92
2019-03-06T07:49:53.833Z,8.87
2019-03-06T07:50:53.852Z,9.02
2019-03-06T07:51:53.820Z,9.02
2019-03-06T07:52:53.824Z,9.04
2019-03-06T07:53:53.816Z,8.97
2019-03-06T07:54:53.900Z,8.97
2019-03-06T07:55:53.779Z,8.94
2019-03-06T07:56:53.838Z,8.97
2019-03-06T07:57:53.876Z,9.13
2019-03-06T07:58:53.752Z,9.13
2019-03-06T07:59:53.718Z,9.10
2019-03-06T08:00:53.714Z,9.11
2019-03-06T08:01:53.712Z,9.11
2019-03-06T08:02:53.724Z,9.13
2019-03-06T08:03:53.672Z,9.14
2019-03-06T08:04:53.695Z,9.18
2019-03-06T08:05:53.826Z,9.21
2019-03-06T08:06:53.666Z,9.21
2019-03-06T08:07:53.667Z,9.14
2019-03-06T08:08:54.468Z,9.19
2019-03-06T08:09:53.630Z,9.18
2019-03-06T08:10:53.662Z,9.22
2019-03-06T08:11:53.584Z,9.25
2019-03-06T08:12:53.673Z,9.28
2019-03-06T08:13:53.608Z,9.31
2019-03-06T08:14:53.560Z,9.31
2019-03-06T08:15:53.547Z,9.32
2019-03-06T08:16:53.546Z,9.37
2019-03-06T08:17:53.591Z,9.46
2019-03-06T08:18:53.516Z,9.41
2019-03-06T08:19:53.505Z,9.41
2019-03-06T08:20:53.499Z,9.39
2019-03-06T08:21:53.489Z,9.46
2019-03-06T08:22:53.476Z,9.54
2019-03-06T08:23:53.576Z,9.51
2019-03-06T08:24:53.625Z,9.51
2019-03-06T08:25:53.438Z,9.51
2019-03-06T08:26:53.429Z,9.54
2019-03-06T08:27:53.457Z,9.55
2019-03-06T08:28:53.402Z,9.59
2019-03-06T08:29:53.461Z,9.64
2019-03-06T08:30:53.396Z,9.62
2019-03-06T08:31:53.406Z,9.77
2019-03-06T08:32:53.363Z,9.66
2019-03-06T08:33:53.354Z,9.74
2019-03-06T08:34:53.352Z,9.73
2019-03-06T08:35:53.374Z,9.80
2019-03-06T08:36:53.319Z,9.87
2019-03-06T08:37:53.307Z,9.92
2019-03-06T08:38:53.305Z,9.94
2019-03-06T08:39:53.298Z,9.92
2019-03-06T08:40:53.358Z,9.91
2019-03-06T08:41:53.359Z,9.87
2019-03-06T08:42:53.273Z,10.02
2019-03-06T08:43:53.266Z,9.98
2019-03-06T08:44:53.263Z,10.09
2019-03-06T08:45:53.217Z,10.12
2019-03-06T08:46:53.223Z,10.17
2019-03-06T08:47:53.194Z,10.16
2019-03-06T08:48:53.279Z,10.23
2019-03-06T08:49:55.153Z,10.26
2019-03-06T08:50:53.163Z,10.28
2019-03-06T08:51:53.158Z,10.34
2019-03-06T08:52:53.157Z,10.41
2019-03-06T08:53:53.134Z,10.41
2019-03-06T08:54:53.176Z,10.42
2019-03-06T08:55:53.121Z,10.44
2019-03-06T08:56:53.146Z,10.40
2019-03-06T08:57:53.119Z,10.57
2019-03-06T08:58:53.096Z,10.53
2019-03-06T08:59:53.094Z,10.61
2019-03-06T09:00:53.075Z,10.57
2019-03-06T09:02:00.093Z,10.64
2019-03-06T09:02:54.070Z,10.67
2019-03-06T09:03:53.015Z,10.71
2019-03-06T09:04:53.099Z,10.67
2019-03-06T09:05:53.049Z,10.75
2019-03-06T09:06:52.983Z,10.76
2019-03-06T09:07:53.039Z,10.76
2019-03-06T09:08:52.964Z,10.71
2019-03-06T09:09:52.978Z,10.69
2019-03-06T09:11:02.245Z,10.75
2019-03-06T09:11:53.931Z,10.75
2019-03-06T09:12:52.955Z,10.75
2019-03-06T09:13:52.913Z,10.76
2019-03-06T09:14:52.951Z,10.76
2019-03-06T09:15:52.914Z,10.81
2019-03-06T09:16:52.893Z,10.76
2019-03-06T09:17:52.933Z,10.75
2019-03-06T09:18:52.856Z,10.74
2019-03-06T09:19:52.911Z,10.74
2019-03-06T09:20:53.047Z,10.69
2019-03-06T09:21:52.830Z,10.64
2019-03-06T09:22:52.858Z,10.72
2019-03-06T09:23:52.897Z,10.74
2019-03-06T09:24:52.876Z,10.75
2019-03-06T09:25:52.809Z,10.76
2019-03-06T09:26:52.772Z,10.84
2019-03-06T09:27:52.760Z,10.81
2019-03-06T09:29:00.670Z,10.76
2019-03-06T09:29:53.728Z,10.78
2019-03-06T09:30:52.712Z,10.90
2019-03-06T09:31:52.724Z,10.87
2019-03-06T09:32:52.721Z,10.92
2019-03-06T09:33:52.737Z,10.94
2019-03-06T09:34:52.684Z,10.99
2019-03-06T09:35:52.707Z,10.94
2019-03-06T09:36:52.655Z,10.99
2019-03-06T09:37:52.650Z,11.02
2019-03-06T09:38:52.639Z,10.96
2019-03-06T09:39:52.625Z,11.11
2019-03-06T09:40:52.656Z,11.07
2019-03-06T09:41:52.617Z,11.15
2019-03-06T09:42:52.629Z,11.17
2019-03-06T09:43:52.625Z,11.22
2019-03-06T09:44:52.656Z,11.26
2019-03-06T09:45:52.566Z,11.26
2019-03-06T09:46:52.622Z,11.25
2019-03-06T09:47:52.594Z,11.29
2019-03-06T09:48:52.526Z,11.30
2019-03-06T09:49:52.507Z,11.37
2019-03-06T09:50:52.519Z,11.30
2019-03-06T09:51:52.498Z,11.41
2019-03-06T09:52:52.508Z,11.44
2019-03-06T09:53:52.462Z,11.51
2019-03-06T09:54:52.453Z,11.54
2019-03-06T09:55:52.442Z,11.62
2019-03-06T09:56:52.427Z,11.62
2019-03-06T09:57:52.609Z,11.65
2019-03-06T09:58:52.439Z,11.77
2019-03-06T09:59:52.399Z,11.77
2019-03-06T10:00:52.467Z,11.80
2019-03-06T10:01:52.381Z,11.87
2019-03-06T10:02:52.375Z,11.84
2019-03-06T10:03:52.402Z,11.83
2019-03-06T10:04:52.377Z,11.95
2019-03-06T10:05:52.337Z,11.97
2019-03-06T10:06:52.326Z,12.00
2019-03-06T10:07:52.315Z,11.94
2019-03-06T10:08:52.328Z,11.95
2019-03-06T10:09:58.912Z,11.99
2019-03-06T10:10:57.601Z,11.91
2019-03-06T10:11:52.265Z,11.81
2019-03-06T10:12:52.271Z,11.91
2019-03-06T10:13:52.314Z,11.90
2019-03-06T10:14:52.275Z,11.84
2019-03-06T10:15:52.217Z,11.94
2019-03-06T10:16:52.326Z,11.95
2019-03-06T10:17:52.202Z,11.94
2019-03-06T10:18:52.211Z,11.91
2019-03-06T10:19:52.197Z,12.07
2019-03-06T10:20:52.189Z,11.97
2019-03-06T10:21:52.154Z,12.07
2019-03-06T10:22:54.624Z,12.10
2019-03-06T10:23:52.143Z,12.03
2019-03-06T10:24:52.116Z,12.03
2019-03-06T10:25:52.182Z,12.09
2019-03-06T10:26:52.103Z,12.10
2019-03-06T10:27:52.091Z,12.04
2019-03-06T10:28:52.141Z,12.12
2019-03-06T10:29:52.078Z,12.10
2019-03-06T10:31:01.859Z,12.18
2019-03-06T10:31:53.044Z,12.09
2019-03-06T10:32:52.043Z,12.21
2019-03-06T10:33:52.037Z,12.15
2019-03-06T10:34:52.050Z,12.22
2019-03-06T10:35:52.015Z,12.25
2019-03-06T10:36:51.994Z,12.25
2019-03-06T10:37:52.019Z,12.32
2019-03-06T10:38:51.986Z,12.35
2019-03-06T10:39:51.961Z,12.32
2019-03-06T10:40:52.073Z,12.39
2019-03-06T10:41:51.978Z,12.42
2019-03-06T10:42:51.936Z,12.45
2019-03-06T10:43:51.918Z,12.42
2019-03-06T10:44:51.893Z,12.42
2019-03-06T10:45:51.918Z,12.55
2019-03-06T10:46:51.899Z,12.54
2019-03-06T10:47:51.933Z,12.54
2019-03-06T10:48:51.849Z,12.53
2019-03-06T10:49:51.868Z,12.68
2019-03-06T10:50:51.837Z,12.65
2019-03-06T10:51:51.870Z,12.67
2019-03-06T10:52:51.824Z,12.78
2019-03-06T10:53:51.884Z,12.82
2019-03-06T10:54:51.800Z,12.87
2019-03-06T10:55:51.771Z,12.95
2019-03-06T10:56:51.831Z,13.05
2019-03-06T10:57:51.801Z,13.03
2019-03-06T10:58:51.758Z,13.09
2019-03-06T10:59:51.789Z,13.05
2019-03-06T11:00:51.734Z,13.11
2019-03-06T11:01:51.710Z,13.11
2019-03-06T11:02:51.701Z,13.18
2019-03-06T11:03:51.719Z,13.13
2019-03-06T11:04:51.722Z,13.12
2019-03-06T11:05:51.667Z,13.11
2019-03-06T11:06:51.670Z,13.08
2019-03-06T11:07:51.671Z,13.13
2019-03-06T11:08:51.639Z,13.19
2019-03-06T11:09:51.637Z,13.28
2019-03-06T11:10:51.654Z,13.19
2019-03-06T11:11:51.600Z,13.22
2019-03-06T11:12:51.667Z,13.19
2019-03-06T11:13:51.582Z,13.18
2019-03-06T11:14:51.574Z,13.19
2019-03-06T11:15:55.649Z,13.19
2019-03-06T11:16:51.581Z,13.15
2019-03-06T11:17:51.529Z,13.11
2019-03-06T11:18:51.528Z,13.13
2019-03-06T11:19:51.508Z,13.13
2019-03-06T11:20:51.673Z,13.13
2019-03-06T11:21:51.503Z,13.15
2019-03-06T11:22:51.485Z,13.19
2019-03-06T11:23:51.530Z,13.15
2019-03-06T11:24:51.472Z,13.15
2019-03-06T11:25:51.458Z,13.12
2019-03-06T11:26:51.493Z,13.09
2019-03-06T11:27:51.447Z,13.12
2019-03-06T11:28:51.412Z,13.22
2019-03-06T11:29:51.407Z,13.08
2019-03-06T11:30:51.394Z,13.20
2019-03-06T11:31:51.448Z,13.27
2019-03-06T11:32:54.481Z,13.23
2019-03-06T11:33:51.357Z,13.28
2019-03-06T11:34:51.351Z,13.37
2019-03-06T11:35:51.361Z,13.44
2019-03-06T11:36:51.338Z,13.42
2019-03-06T11:37:51.325Z,13.44
2019-03-06T11:38:51.338Z,13.53
2019-03-06T11:39:51.343Z,13.49
2019-03-06T11:40:51.297Z,13.50
2019-03-06T11:41:51.264Z,13.53
2019-03-06T11:42:51.262Z,13.53
2019-03-06T11:43:51.488Z,13.54
2019-03-06T11:44:51.248Z,13.60
2019-03-06T11:45:51.237Z,13.56
2019-03-06T11:46:52.972Z,13.60
2019-03-06T11:47:51.211Z,13.57
2019-03-06T11:48:51.199Z,13.60
2019-03-06T11:49:51.239Z,13.71
2019-03-06T11:50:51.169Z,13.75
2019-03-06T11:51:51.169Z,13.74
2019-03-06T11:52:51.153Z,13.77
2019-03-06T11:53:51.150Z,13.71
2019-03-06T11:54:51.126Z,13.83
2019-03-06T11:55:51.327Z,13.78
2019-03-06T11:56:51.113Z,13.90
2019-03-06T11:57:51.104Z,13.81
2019-03-06T11:58:52.018Z,13.96
2019-03-06T11:59:51.067Z,13.92
2019-03-06T12:00:51.104Z,13.93
2019-03-06T12:01:51.050Z,13.96
2019-03-06T12:02:51.047Z,13.81
2019-03-06T12:03:52.016Z,13.83
2019-03-06T12:04:51.017Z,13.83
2019-03-06T12:05:51.013Z,13.87
2019-03-06T12:06:51.071Z,13.79
2019-03-06T12:07:50.980Z,13.79
2019-03-06T12:08:50.972Z,13.89
2019-03-06T12:09:50.980Z,13.85
2019-03-06T12:10:50.977Z,13.78
2019-03-06T12:11:50.929Z,13.74
2019-03-06T12:12:50.953Z,13.85
2019-03-06T12:13:50.966Z,13.79
2019-03-06T12:14:50.906Z,13.79
2019-03-06T12:15:50.896Z,13.81
2019-03-06T12:16:50.879Z,13.90
2019-03-06T12:17:50.870Z,13.90
2019-03-06T12:18:50.886Z,13.95
2019-03-06T12:19:51.087Z,14.00
2019-03-06T12:20:50.866Z,13.89
2019-03-06T12:21:50.825Z,13.93
2019-03-06T12:22:50.871Z,14.07
2019-03-06T12:23:50.855Z,14.07
2019-03-06T12:24:50.831Z,14.07
2019-03-06T12:25:50.778Z,13.92
2019-03-06T12:26:50.787Z,13.97
2019-03-06T12:27:50.762Z,14.04
2019-03-06T12:28:50.740Z,13.93
2019-03-06T12:29:50.736Z,13.90
2019-03-06T12:30:50.754Z,13.92
2019-03-06T12:31:50.774Z,13.97
2019-03-06T12:32:50.710Z,13.90
2019-03-06T12:33:50.685Z,13.81
2019-03-06T12:34:50.695Z,13.85
2019-03-06T12:35:50.807Z,13.77
2019-03-06T12:36:50.690Z,13.75
2019-03-06T12:37:50.691Z,13.78
2019-03-06T12:38:50.665Z,13.74
2019-03-06T12:39:50.636Z,13.72
2019-03-06T12:40:50.650Z,13.75
2019-03-06T12:41:50.642Z,13.62
2019-03-06T12:42:58.151Z,13.60
2019-03-06T12:43:50.579Z,13.57
2019-03-06T12:44:50.573Z,13.62
2019-03-06T12:45:50.582Z,13.60
2019-03-06T12:46:50.657Z,13.59
2019-03-06T12:47:55.442Z,13.59
2019-03-06T12:48:51.525Z,13.53
2019-03-06T12:49:50.621Z,13.57
2019-03-06T12:50:55.226Z,13.57
2019-03-06T12:51:54.546Z,13.59
2019-03-06T12:52:50.525Z,13.50
2019-03-06T12:53:50.468Z,13.50
2019-03-06T12:54:50.467Z,13.47
2019-03-06T12:55:50.457Z,13.39
2019-03-06T12:56:50.444Z,13.41
2019-03-06T12:57:58.962Z,13.42
2019-03-06T12:58:51.412Z,13.47
2019-03-06T12:59:50.401Z,13.35
2019-03-06T13:00:51.060Z,13.37
2019-03-06T13:01:50.401Z,13.30
2019-03-06T13:02:50.563Z,13.30
2019-03-06T13:03:50.411Z,13.33
2019-03-06T13:04:50.353Z,13.33
2019-03-06T13:05:50.375Z,13.30
2019-03-06T13:06:50.386Z,13.38
2019-03-06T13:07:50.324Z,13.41
2019-03-06T13:08:50.945Z,13.39
2019-03-06T13:09:50.302Z,13.38